Cosco Singapore — 2BOW4 — position and weather

sailwx.info

Track history (hours):
 
Tides and Currents Weather Stations Pressure Air Temp Water Temp Dewpoint Dewpoint Depression Visibility Wind Speed Wind Dir Waves Ship Positions

Cosco Singapore

Last reported at 2018-Jun-09 06:31 UTC. Time now 2018-Jun-24 01:32 UTC.
Position N 30°55' E 032°19'.
Warning: this ship's position is 14 days out of date.

Length 280 m; draft 14 m.

Type: Ship (hazmat cat A). MMSI: 235068032.

Date/timePositionNaut miles runAvg speedWind from/ knotsBaromVisibWave heightAir tempDewpointWater temp
2018-Jun-09 06:31N 30°55' E 032°19'2 8.9
2018-Jun-09 06:15N 30°57' E 032°19'26 8.6
2018-Jun-09 03:12N 31°23' E 032°23'9 1.2
2018-Jun-08 19:55N 31°29' E 032°17'714.4
2018-Jun-08 19:28N 31°33' E 032°11'816.5
2018-Jun-08 19:00N 31°38' E 032°04'15 0.7
2018-Jun-07 21:00N 31°35' E 031°47'19 2.7
2018-Jun-07 14:00N 31°46' E 032°05'50 8.3
2018-Jun-07 07:54N 32°19' E 032°50'717.1
2018-Jun-07 07:30N 32°24' E 032°56'916.9
2018-Jun-07 06:58N 32°30' E 033°04'916.8
2018-Jun-07 06:24N 32°37' E 033°11'1316.7
2018-Jun-07 05:37N 32°46' E 033°23'217.1
2018-Jun-07 05:30N 32°47' E 033°24'916.5
2018-Jun-07 04:56N 32°54' E 033°32'1216.8
2018-Jun-07 04:13N 33°02' E 033°43'416.8
2018-Jun-07 03:59N 33°05' E 033°47'916.8
2018-Jun-07 03:28N 33°10' E 033°54'1516.8
2018-Jun-07 02:36N 33°19' E 034°08'218.1
2018-Jun-07 02:30N 33°20' E 034°10'916.8
2018-Jun-07 01:58N 33°25' E 034°19'817.1
2018-Jun-07 01:30N 33°30' E 034°27'917.3
2018-Jun-07 01:00N 33°34' E 034°35'917.1
2018-Jun-07 00:30N 33°39' E 034°44'817.1
2018-Jun-07 00:01N 33°44' E 034°52'917.1
2018-Jun-06 23:30N 33°48' E 035°01'18 0.8
2018-Jun-06 00:48N 34°04' E 035°11'516.6
2018-Jun-06 00:30N 34°09' E 035°11'4116.7
2018-Jun-05 22:04N 34°49' E 035°12'116.6
2018-Jun-05 22:00N 34°50' E 035°13'816.5
2018-Jun-05 21:30N 34°59' E 035°13'  
2018-Jun-03 06:55N 37°29' E 025°56'817.1
2018-Jun-03 06:25N 37°37' E 025°53'  
Track history (hours):
 
Tides and Currents Weather Stations Pressure Air Temp Water Temp Dewpoint Dewpoint Depression Visibility Wind Speed Wind Dir Waves Ship Positions

Cosco Singapore

Last reported at 2018-Jun-09 06:31 UTC. Time now 2018-Jun-24 01:32 UTC.
Position N 30°55' E 032°19'.
Warning: this ship's position is 14 days out of date.

Length 280 m; draft 14 m.

Type: Ship (hazmat cat A). MMSI: 235068032.

Date/timePositionNaut miles runAvg speedWind from/ knotsBaromVisibWave heightAir tempDewpointWater temp
2018-Jun-09 06:31N 30°55' E 032°19'2 8.9
2018-Jun-09 06:15N 30°57' E 032°19'26 8.6
2018-Jun-09 03:12N 31°23' E 032°23'9 1.2
2018-Jun-08 19:55N 31°29' E 032°17'714.4
2018-Jun-08 19:28N 31°33' E 032°11'816.5
2018-Jun-08 19:00N 31°38' E 032°04'15 0.7
2018-Jun-07 21:00N 31°35' E 031°47'19 2.7
2018-Jun-07 14:00N 31°46' E 032°05'50 8.3
2018-Jun-07 07:54N 32°19' E 032°50'717.1
2018-Jun-07 07:30N 32°24' E 032°56'916.9
2018-Jun-07 06:58N 32°30' E 033°04'916.8
2018-Jun-07 06:24N 32°37' E 033°11'1316.7
2018-Jun-07 05:37N 32°46' E 033°23'217.1
2018-Jun-07 05:30N 32°47' E 033°24'916.5
2018-Jun-07 04:56N 32°54' E 033°32'1216.8
2018-Jun-07 04:13N 33°02' E 033°43'416.8
2018-Jun-07 03:59N 33°05' E 033°47'916.8
2018-Jun-07 03:28N 33°10' E 033°54'1516.8
2018-Jun-07 02:36N 33°19' E 034°08'218.1
2018-Jun-07 02:30N 33°20' E 034°10'916.8
2018-Jun-07 01:58N 33°25' E 034°19'817.1
2018-Jun-07 01:30N 33°30' E 034°27'917.3
2018-Jun-07 01:00N 33°34' E 034°35'917.1
2018-Jun-07 00:30N 33°39' E 034°44'817.1
2018-Jun-07 00:01N 33°44' E 034°52'917.1
2018-Jun-06 23:30N 33°48' E 035°01'18 0.8
2018-Jun-06 00:48N 34°04' E 035°11'516.6
2018-Jun-06 00:30N 34°09' E 035°11'4116.7
2018-Jun-05 22:04N 34°49' E 035°12'116.6
2018-Jun-05 22:00N 34°50' E 035°13'816.5
2018-Jun-05 21:30N 34°59' E 035°13'  
2018-Jun-03 06:55N 37°29' E 025°56'817.1
2018-Jun-03 06:25N 37°37' E 025°53'  

Dump ship's entire track history